Pateros, WA (98846)

3:15 PM PDT on August 27, 2016 (GMT -0700)
Biebesheimer Retreat, Chiliwist Valley | | Change Station

Elev 2739 ft 48.31 °N, 119.84 °W | Updated 7 seconds ago

Clear
Clear
81.1 °F
Feels Like 79 °F
N
10.5
Wind Variable Wind from SW
Gusts 15.0 mph

Today
High -- | Low -- °F
--% Chance of Precip.
Yesterday
High -- | Low -- °F
Precip. -- in
Pressure 29.62 in
Visibility 10.0 miles
Clouds Clear
Heat Index 79 °F
Dew Point 35 °F
Humidity 19%
Rainfall 0.00 in
Snow Depth Not available.
6:10 AM 7:49 PM
Waning Crescent, 21% visible
METAR KOMK 272153Z AUTO 27010G22KT 10SM CLR 32/03 A2964 RMK AO2 WSHFT 2135 SLP028 T03170028 $
Pressure 29.62 in
Visibility 10.0 miles
Clouds Clear
Heat Index 79 °F
Dew Point 35 °F
Humidity 19%
Rainfall 0.00 in
Snow Depth Not available.
6:10 AM 7:49 PM
Waning Crescent, 21% visible
METAR KOMK 272153Z AUTO 27010G22KT 10SM CLR 32/03 A2964 RMK AO2 WSHFT 2135 SLP028 T03170028 $

10-Day Weather Forecast

Almanac

Astronomy

Aug. 27, 2016 Rise Set
Actual Time
Civil Twilight
Nautical Twilight
Astronomical Twilight
Moon
Length of Visible Light
Length of Day
Tomorrow will be .
, % of the Moon is Illuminated

Today's Extremes

State Highs State Lows

Community

WunderPhotos

Upload Photos

1,935,455 photos uploaded!

WunderBlog® & News

Nearby

Air Quality

  Air Quality AQ Index Pollutant
Not available.

Snow Depth

Station Depth Elevation

Earthquake Activity

City Distance Mag. Time & Date
Minimum magnitude displayed is 2.5.

Coastal Water Temperatures

Place Temperature

Stations

Nearby Weather Stations

Station Location Temp. Windchill Dew Point Humidity Wind Precip. Elev Updated Type
                   

Watches & Warnings

There are currently no watches in effect.